Time;durP1;ratioP1;P1;durP2;ratioP2;P2;SDS_P1;SDS_P2;PMS_P1;PMS_P2;Temp;Humidity;BMP_temperature;BMP_pressure;BME280_temperature;BME280_humidity;BME280_pressure;Samples;Min_cycle;Max_cycle;Signal;HPM_P1;HPM_P2
2023/04/30 00:00:38;;;;;;;23.42;8.90;;;;;;;6.78;96.60;102150.41;4838804;29;20029;-78
2023/04/30 00:03:03;;;;;;;20.88;8.65;;;;;;;6.79;97.38;102152.16;4838802;29;20029;-78
2023/04/30 00:05:28;;;;;;;22.10;9.25;;;;;;;6.76;96.99;102146.91;4839008;29;20026;-78
2023/04/30 00:07:53;;;;;;;21.52;9.20;;;;;;;6.75;97.63;102145.16;4838808;29;20101;-78
2023/04/30 00:10:19;;;;;;;22.40;9.88;;;;;;;6.73;97.96;102147.03;4840182;29;20056;-78
2023/04/30 00:12:44;;;;;;;24.67;11.10;;;;;;;6.75;97.60;102147.84;4840112;29;20391;-78
2023/04/30 00:15:10;;;;;;;22.95;10.02;;;;;;;6.69;97.21;102156.97;4838765;29;20065;-78
2023/04/30 00:17:36;;;;;;;24.67;10.77;;;;;;;6.65;98.54;102153.53;4840018;29;20025;-78
2023/04/30 00:20:01;;;;;;;22.50;9.63;;;;;;;6.65;98.75;102156.19;4840102;29;20049;-78
2023/04/30 00:22:26;;;;;;;27.13;10.70;;;;;;;6.65;99.04;102155.31;4840170;29;20112;-78
2023/04/30 00:24:51;;;;;;;22.95;9.95;;;;;;;6.66;99.94;102151.72;4838929;29;20052;-78
2023/04/30 00:27:17;;;;;;;25.05;9.68;;;;;;;6.67;100.00;102156.13;4838477;29;20220;-78
2023/04/30 00:29:42;;;;;;;22.98;11.02;;;;;;;6.68;100.00;102152.53;4840013;29;20034;-78
2023/04/30 00:32:07;;;;;;;23.40;9.57;;;;;;;6.69;100.00;102161.41;4838458;29;20029;-78
2023/04/30 00:34:33;;;;;;;22.83;11.13;;;;;;;6.69;100.00;102153.41;4838739;29;20034;-78
2023/04/30 00:36:58;;;;;;;23.42;9.93;;;;;;;6.70;100.00;102160.50;4838631;29;20125;-78
2023/04/30 00:39:23;;;;;;;24.25;11.20;;;;;;;6.70;100.00;102157.84;4839934;29;20420;-78
2023/04/30 00:41:48;;;;;;;24.48;10.85;;;;;;;6.69;100.00;102148.97;4839728;29;20117;-78
2023/04/30 00:44:14;;;;;;;23.05;10.45;;;;;;;6.69;100.00;102153.41;4838667;29;20053;-78
2023/04/30 00:46:39;;;;;;;24.48;11.73;;;;;;;6.68;100.00;102157.00;4839667;29;20034;-78
2023/04/30 00:49:05;;;;;;;23.52;11.35;;;;;;;6.68;100.00;102154.31;4839820;29;20041;-78
2023/04/30 00:51:31;;;;;;;26.65;11.77;;;;;;;6.69;100.00;102156.06;4839805;29;20074;-78
2023/04/30 00:53:59;;;;;;;24.90;12.10;;;;;;;6.68;100.00;102159.66;4839982;29;20178;-78
2023/04/30 00:56:24;;;;;;;25.42;12.75;;;;;;;6.66;100.00;102157.06;4838346;29;20033;-78
2023/04/30 00:58:53;;;;;;;24.75;12.50;;;;;;;6.64;100.00;102153.56;4839830;29;20443;-78
2023/04/30 01:01:18;;;;;;;26.88;13.35;;;;;;;6.62;100.00;102150.09;4839747;29;20153;-78
2023/04/30 01:03:44;;;;;;;26.10;13.20;;;;;;;6.61;100.00;102148.34;4839829;29;20486;-78
2023/04/30 01:06:10;;;;;;;25.30;13.52;;;;;;;6.60;100.00;102151.94;4841223;29;20398;-78
2023/04/30 01:08:35;;;;;;;25.45;13.07;;;;;;;6.60;100.00;102146.59;4842925;29;20038;-78
2023/04/30 01:11:37;;;;;;;29.05;13.80;;;;;;;6.64;100.00;102148.22;4842842;29;20037;-78
2023/04/30 01:14:15;;;;;;;30.58;12.93;;;;;;;6.62;100.00;102140.28;4841512;29;20038;-78
2023/04/30 01:16:47;;;;;;;27.27;13.90;;;;;;;6.62;100.00;102139.41;4841426;29;20396;-78
2023/04/30 01:19:43;;;;;;;28.27;12.40;;;;;;;6.64;100.00;102143.75;4842804;29;20041;-78
2023/04/30 01:22:13;;;;;;;25.05;12.57;;;;;;;6.60;100.00;102147.50;4840215;29;20459;-78
2023/04/30 01:25:17;;;;;;;27.85;12.93;;;;;;;6.64;100.00;102146.44;4842867;29;20034;-78
2023/04/30 01:28:15;;;;;;;24.15;11.60;;;;;;;6.68;100.00;102140.97;4836753;29;20026;-78
2023/04/30 01:30:43;;;;;;;24.13;12.35;;;;;;;6.61;100.00;102143.00;4835002;29;20285;-78
2023/04/30 01:33:09;;;;;;;24.38;12.38;;;;;;;6.58;100.00;102143.97;4842453;29;20030;-78
2023/04/30 01:36:15;;;;;;;22.77;11.25;;;;;;;6.61;100.00;102148.34;4833562;29;20128;-78
2023/04/30 01:38:59;;;;;;;24.08;12.02;;;;;;;6.56;100.00;102151.19;4833819;29;20030;-78
2023/04/30 01:41:41;;;;;;;25.20;12.05;;;;;;;6.51;100.00;102152.28;4842228;29;20069;-78
2023/04/30 01:44:33;;;;;;;27.70;12.45;;;;;;;6.50;100.00;102142.50;4840996;29;20061;-78
2023/04/30 01:47:23;;;;;;;25.67;11.90;;;;;;;6.50;100.00;102147.84;4834878;29;20055;-78
2023/04/30 01:50:12;;;;;;;22.33;11.32;;;;;;;6.45;100.00;102143.53;4840878;29;20041;-78
2023/04/30 01:52:44;;;;;;;26.88;11.95;;;;;;;6.39;100.00;102143.75;4840770;29;20038;-78
2023/04/30 01:55:20;;;;;;;24.80;11.77;;;;;;;6.37;100.00;102144.72;4842401;29;20044;-78
2023/04/30 01:57:56;;;;;;;24.20;11.90;;;;;;;6.37;100.00;102144.72;4840437;29;20493;-78
2023/04/30 02:00:21;;;;;;;26.45;13.05;;;;;;;6.32;100.00;102147.56;4842289;29;20056;-78
2023/04/30 02:02:47;;;;;;;22.88;11.98;;;;;;;6.30;100.00;102144.09;4840190;29;20046;-78
2023/04/30 02:05:12;;;;;;;26.23;13.88;;;;;;;6.30;100.00;102155.63;4840743;29;20041;-78
2023/04/30 02:07:40;;;;;;;25.52;12.35;;;;;;;6.31;100.00;102151.19;4842159;29;20034;-78
2023/04/30 02:10:06;;;;;;;23.35;11.68;;;;;;;6.29;100.00;102155.69;4840534;29;20182;-79
2023/04/30 02:12:32;;;;;;;24.10;12.15;;;;;;;6.27;100.00;102160.22;4841791;29;20482;-78
2023/04/30 02:14:57;;;;;;;24.35;12.95;;;;;;;6.27;100.00;102154.88;4841840;29;20053;-79
2023/04/30 02:17:22;;;;;;;25.30;12.32;;;;;;;6.24;100.00;102152.31;4839839;29;20173;-78
2023/04/30 02:19:48;;;;;;;24.90;12.20;;;;;;;6.21;100.00;102150.63;4840486;29;20551;-78
2023/04/30 02:22:13;;;;;;;26.45;12.25;;;;;;;6.21;100.00;102155.94;4840349;29;20041;-78
2023/04/30 02:24:38;;;;;;;23.98;12.38;;;;;;;6.18;100.00;102150.72;4842102;29;20538;-78
2023/04/30 02:27:04;;;;;;;24.92;11.85;;;;;;;6.18;100.00;102161.41;4841523;29;20037;-78
2023/04/30 02:29:29;;;;;;;26.02;11.95;;;;;;;6.14;100.00;102165.09;4841419;29;20076;-78
2023/04/30 02:31:57;;;;;;;23.88;11.18;;;;;;;6.10;100.00;102152.75;4841247;29;20257;-78
2023/04/30 02:34:23;;;;;;;25.65;12.77;;;;;;;6.09;100.00;102156.34;4840084;29;20417;-78
2023/04/30 02:36:48;;;;;;;25.83;12.13;;;;;;;6.10;100.00;102158.09;4840248;29;20041;-78
2023/04/30 02:39:13;;;;;;;23.15;11.30;;;;;;;6.05;100.00;102155.59;4840119;29;20030;-78
2023/04/30 02:41:39;;;;;;;25.00;11.45;;;;;;;6.08;100.00;102155.50;4841249;29;20117;-78
2023/04/30 02:44:04;;;;;;;25.63;12.43;;;;;;;6.07;100.00;102153.72;4840266;29;20029;-78
2023/04/30 02:46:29;;;;;;;25.27;12.70;;;;;;;6.04;100.00;102153.84;4839918;29;20066;-78
2023/04/30 02:48:55;;;;;;;24.88;12.32;;;;;;;6.01;100.00;102159.28;4840961;29;20113;-78
2023/04/30 02:51:20;;;;;;;24.65;11.85;;;;;;;6.01;100.00;102158.41;4839903;29;20466;-78
2023/04/30 02:53:45;;;;;;;26.48;11.65;;;;;;;6.00;100.00;102157.53;4839928;29;20053;-78
2023/04/30 02:56:10;;;;;;;27.63;12.57;;;;;;;5.98;100.00;102148.72;4841177;29;20034;-78
2023/04/30 02:58:36;;;;;;;26.00;13.75;;;;;;;5.98;100.00;102150.53;4839714;29;20125;-78
2023/04/30 03:01:01;;;;;;;28.20;13.70;;;;;;;5.96;100.00;102158.53;4831740;29;20057;-78
2023/04/30 03:03:26;;;;;;;26.50;13.95;;;;;;;5.93;100.00;102146.16;4839343;29;20436;-78
2023/04/30 03:05:51;;;;;;;25.63;13.02;;;;;;;5.94;100.00;102153.25;4839611;29;20040;-78
2023/04/30 03:08:17;;;;;;;23.88;13.10;;;;;;;5.92;100.00;102139.06;4839627;29;20060;-78
2023/04/30 03:10:42;;;;;;;26.08;13.45;;;;;;;5.91;100.00;102137.31;4839676;29;20447;-78
2023/04/30 03:13:07;;;;;;;26.50;12.70;;;;;;;5.93;100.00;102140.84;4839400;29;20086;-78
2023/04/30 03:15:32;;;;;;;24.83;13.05;;;;;;;5.93;100.00;102139.97;4840863;29;20105;-78
2023/04/30 03:17:58;;;;;;;29.63;14.38;;;;;;;5.90;100.00;102145.38;4839206;29;20045;-78
2023/04/30 03:20:23;;;;;;;25.92;12.65;;;;;;;5.87;100.00;102141.03;4840842;29;20038;-78
2023/04/30 03:22:48;;;;;;;25.83;12.88;;;;;;;5.86;100.00;102138.44;4840846;29;20104;-78
2023/04/30 03:25:14;;;;;;;31.27;14.13;;;;;;;5.87;100.00;102145.47;4840660;29;20082;-78
2023/04/30 03:27:39;;;;;;;24.33;12.20;;;;;;;5.83;100.00;102136.72;4840307;29;20034;-78
2023/04/30 03:30:06;;;;;;;26.85;12.88;;;;;;;5.82;100.00;102134.97;4838877;29;20034;-78
2023/04/30 03:32:31;;;;;;;26.15;13.07;;;;;;;5.76;100.00;102133.38;4840275;29;20056;-78
2023/04/30 03:34:56;;;;;;;24.90;12.98;;;;;;;5.74;100.00;102145.91;4840582;29;20061;-78
2023/04/30 03:37:21;;;;;;;24.15;13.65;;;;;;;5.77;100.00;102143.13;4840507;29;20033;-78
2023/04/30 03:39:47;;;;;;;27.00;13.43;;;;;;;5.76;100.00;102145.84;4840603;29;20026;-78
2023/04/30 03:42:12;;;;;;;26.05;13.75;;;;;;;5.72;100.00;102141.53;4839015;29;20037;-78
2023/04/30 03:44:37;;;;;;;24.52;12.95;;;;;;;5.70;100.00;102138.03;4839141;29;20072;-78
2023/04/30 03:47:03;;;;;;;25.75;11.13;;;;;;;5.64;100.00;102144.44;4840193;29;20022;-78
2023/04/30 03:49:28;;;;;;;25.80;12.85;;;;;;;5.65;100.00;102146.19;4840132;29;20026;-78
2023/04/30 03:51:53;;;;;;;25.88;13.20;;;;;;;5.65;100.00;102145.31;4839073;29;20509;-78
2023/04/30 03:54:19;;;;;;;27.35;13.23;;;;;;;5.64;100.00;102147.13;4840440;29;20022;-78
2023/04/30 03:56:44;;;;;;;25.02;14.05;;;;;;;5.61;100.00;102155.22;4840138;29;20045;-78
2023/04/30 03:59:10;;;;;;;25.02;12.52;;;;;;;5.58;100.00;102150.84;4840428;29;20025;-78
2023/04/30 04:01:35;;;;;;;26.13;13.95;;;;;;;5.57;100.00;102162.41;4838448;29;20065;-78
2023/04/30 04:04:01;;;;;;;26.10;13.50;;;;;;;5.58;100.00;102165.97;4840270;29;20089;-78
2023/04/30 04:06:26;;;;;;;25.48;13.93;;;;;;;5.57;100.00;102165.09;4840254;29;20350;-78
2023/04/30 04:08:51;;;;;;;25.75;14.52;;;;;;;5.60;100.00;102170.31;4838798;29;20121;-78
2023/04/30 04:11:16;;;;;;;27.75;14.20;;;;;;;5.60;100.00;102161.47;4838798;29;20030;-78
2023/04/30 04:13:42;;;;;;;24.23;12.68;;;;;;;5.57;100.00;102161.56;4840353;29;20073;-78
2023/04/30 04:16:08;;;;;;;24.45;13.77;;;;;;;5.54;100.00;102167.84;4840161;29;20406;-79
2023/04/30 04:18:33;;;;;;;26.13;13.00;;;;;;;5.52;100.00;102161.72;4838710;29;20479;-78
2023/04/30 04:21:00;;;;;;;26.00;12.32;;;;;;;5.52;100.00;102164.38;4838708;29;20061;-78
2023/04/30 04:23:25;;;;;;;27.33;14.65;;;;;;;5.56;100.00;102165.13;4838827;29;20116;-78
2023/04/30 04:25:51;;;;;;;26.33;13.82;;;;;;;5.55;100.00;102169.59;4838685;29;20342;-78
2023/04/30 04:28:16;;;;;;;26.90;14.35;;;;;;;5.58;100.00;102172.19;4838335;29;20037;-78
2023/04/30 04:30:42;;;;;;;25.70;13.75;;;;;;;5.60;100.00;102175.66;4832644;29;20038;-78
2023/04/30 04:33:08;;;;;;;24.70;13.75;;;;;;;5.59;100.00;102170.38;4837811;29;20037;-78
2023/04/30 04:35:33;;;;;;;25.13;13.13;;;;;;;5.58;100.00;102172.19;4838219;29;20671;-78
2023/04/30 04:37:59;;;;;;;25.35;13.98;;;;;;;5.59;100.00;102175.72;4839877;29;20041;-78
2023/04/30 04:40:24;;;;;;;27.38;14.52;;;;;;;5.60;100.00;102169.47;4840279;29;20067;-78
2023/04/30 04:42:53;;;;;;;24.70;13.23;;;;;;;5.63;100.00;102182.69;4843420;29;20029;-78
2023/04/30 04:45:19;;;;;;;25.10;13.23;;;;;;;5.64;100.00;102180.88;4842144;29;20094;-77
2023/04/30 04:47:45;;;;;;;26.10;13.80;;;;;;;5.64;100.00;102183.56;4843165;29;20474;-78
2023/04/30 04:50:11;;;;;;;27.10;14.40;;;;;;;5.65;100.00;102186.22;4842039;29;20034;-78
2023/04/30 04:52:36;;;;;;;26.15;13.43;;;;;;;5.67;100.00;102181.69;4841963;29;20439;-78
2023/04/30 04:55:02;;;;;;;28.15;14.63;;;;;;;5.67;100.00;102192.34;4842051;29;20567;-78
2023/04/30 04:57:27;;;;;;;26.27;14.40;;;;;;;5.73;100.00;102197.50;4841740;29;20579;-78
2023/04/30 04:59:53;;;;;;;25.40;13.80;;;;;;;5.75;100.00;102185.00;4842008;29;20045;-78
2023/04/30 05:02:18;;;;;;;26.40;14.95;;;;;;;5.80;100.00;102181.28;4842523;29;20057;-78
2023/04/30 05:04:45;;;;;;;28.25;14.90;;;;;;;5.83;100.00;102182.06;4841734;29;20053;-78
2023/04/30 05:07:11;;;;;;;28.33;15.75;;;;;;;5.86;100.00;102176.63;4843146;29;20504;-78
2023/04/30 05:09:36;;;;;;;25.98;14.32;;;;;;;5.91;100.00;102176.47;4843000;29;20040;-78
2023/04/30 05:12:01;;;;;;;25.52;14.27;;;;;;;5.98;100.00;102187.88;4842642;29;20108;-78
2023/04/30 05:14:27;;;;;;;27.25;15.57;;;;;;;6.02;100.00;102181.50;4843018;29;20104;-78
2023/04/30 05:16:52;;;;;;;27.95;15.68;;;;;;;6.05;100.00;102176.94;4842656;29;20030;-78
2023/04/30 05:19:17;;;;;;;28.27;15.90;;;;;;;6.11;100.00;102178.53;4842910;29;20435;-78
2023/04/30 05:21:42;;;;;;;27.80;16.20;;;;;;;6.17;100.00;102174.81;4842814;29;20451;-78
2023/04/30 05:24:08;;;;;;;30.60;16.38;;;;;;;6.22;100.00;102175.50;4841395;29;20037;-78
2023/04/30 05:26:33;;;;;;;29.83;15.95;;;;;;;6.27;100.00;102176.22;4841350;29;20041;-78
2023/04/30 05:28:58;;;;;;;28.38;16.73;;;;;;;6.33;100.00;102172.50;4842677;29;20038;-78
2023/04/30 05:31:23;;;;;;;29.42;17.05;;;;;;;6.38;100.00;102170.50;4840954;29;20109;-78
2023/04/30 05:33:49;;;;;;;28.10;17.10;;;;;;;6.41;100.00;102173.06;4835712;29;20039;-78
2023/04/30 05:36:14;;;;;;;28.50;17.02;;;;;;;6.46;100.00;102179.16;4842547;29;20108;-78
2023/04/30 05:38:40;;;;;;;27.58;16.02;;;;;;;6.49;100.00;102181.72;4842597;29;20045;-78
2023/04/30 05:41:05;;;;;;;26.20;16.20;;;;;;;6.54;100.00;102184.22;4842527;29;20067;-79
2023/04/30 05:43:30;;;;;;;31.25;16.25;;;;;;;6.62;100.00;102183.03;4842259;29;20375;-78
2023/04/30 05:45:56;;;;;;;31.10;16.42;;;;;;;6.68;100.00;102186.38;4842404;29;20047;-79
2023/04/30 05:48:21;;;;;;;27.90;16.27;;;;;;;6.71;100.00;102176.47;4840910;29;20087;-79
2023/04/30 05:50:46;;;;;;;27.38;16.35;;;;;;;6.77;100.00;102181.59;4840557;29;20450;-78
2023/04/30 05:53:12;;;;;;;28.48;16.15;;;;;;;6.83;100.00;102181.38;4840475;29;20056;-78
2023/04/30 05:55:38;;;;;;;25.83;15.60;;;;;;;6.88;100.00;102181.22;4842216;29;20093;-78
2023/04/30 05:58:03;;;;;;;26.90;15.40;;;;;;;6.93;100.00;102179.25;4840861;29;20502;-78
2023/04/30 06:00:28;;;;;;;27.88;14.60;;;;;;;6.98;100.00;102184.41;4840813;29;20030;-78
2023/04/30 06:02:54;;;;;;;26.77;14.20;;;;;;;7.04;100.00;102183.31;4841728;29;20074;-78
2023/04/30 06:05:19;;;;;;;26.30;14.15;;;;;;;7.10;100.00;102175.97;4840724;29;20021;-78
2023/04/30 06:07:45;;;;;;;25.33;13.48;;;;;;;7.17;100.00;102176.56;4840711;29;20125;-78
2023/04/30 06:10:11;;;;;;;25.20;13.45;;;;;;;7.23;100.00;102176.34;4840795;29;20049;-78
2023/04/30 06:12:38;;;;;;;25.30;12.98;;;;;;;7.33;100.00;102179.53;4842039;29;20070;-78
2023/04/30 06:15:04;;;;;;;24.90;13.25;;;;;;;7.40;100.00;102174.84;4840598;29;20037;-79
2023/04/30 06:17:29;;;;;;;24.67;13.68;;;;;;;7.46;100.00;102174.59;4840367;29;20037;-78
2023/04/30 06:19:54;;;;;;;25.23;12.60;;;;;;;7.52;100.00;102179.72;4842031;29;20026;-78
2023/04/30 06:22:20;;;;;;;26.95;14.10;;;;;;;7.60;100.00;102174.94;4840362;29;20058;-78
2023/04/30 06:24:45;;;;;;;24.80;12.65;;;;;;;7.64;100.00;102163.19;4841823;29;20101;-78
2023/04/30 06:27:10;;;;;;;23.95;12.75;;;;;;;7.73;100.00;102166.41;4840191;29;20034;-78
2023/04/30 06:29:35;;;;;;;27.00;13.80;;;;;;;7.80;100.00;102167.91;4840232;29;20513;-79
2023/04/30 06:32:01;;;;;;;25.83;13.05;;;;;;;7.85;100.00;102173.97;4841421;29;20033;-79
2023/04/30 06:34:26;;;;;;;25.75;12.90;;;;;;;7.92;100.00;102178.13;4841544;29;20034;-79
2023/04/30 06:36:51;;;;;;;22.20;12.05;;;;;;;7.98;100.00;102175.19;4840162;29;20033;-78
2023/04/30 06:39:16;;;;;;;27.33;14.05;;;;;;;8.04;100.00;102169.59;4841306;29;20128;-77
2023/04/30 06:41:42;;;;;;;28.25;12.50;;;;;;;8.12;100.00;102173.75;4839947;29;20034;-79
2023/04/30 06:44:08;;;;;;;25.75;13.52;;;;;;;8.17;100.00;102175.31;4841338;29;20033;-79
2023/04/30 06:46:33;;;;;;;23.58;12.07;;;;;;;8.25;100.00;102174.97;4839805;29;20463;-79
2023/04/30 06:48:59;;;;;;;26.73;14.02;;;;;;;8.31;100.00;102172.03;4841247;29;20109;-79
2023/04/30 06:51:24;;;;;;;22.60;12.38;;;;;;;8.37;100.00;102178.94;4839995;29;20433;-79
2023/04/30 06:53:49;;;;;;;24.92;13.00;;;;;;;8.42;100.00;102179.63;4839950;29;20042;-79
2023/04/30 06:56:15;;;;;;;27.83;13.15;;;;;;;8.46;100.00;102172.34;4841117;29;20475;-78
2023/04/30 06:58:41;;;;;;;25.70;12.10;;;;;;;8.52;100.00;102172.97;4840856;29;20026;-78
2023/04/30 07:01:06;;;;;;;26.58;13.80;;;;;;;8.59;100.00;102184.28;4839612;29;20433;-79
2023/04/30 07:03:32;;;;;;;24.65;12.68;;;;;;;8.66;100.00;102184.88;4840335;29;20073;-79
2023/04/30 07:05:58;;;;;;;25.02;13.02;;;;;;;8.70;100.00;102178.47;4841026;29;20482;-79
2023/04/30 07:08:23;;;;;;;25.83;12.75;;;;;;;8.75;100.00;102181.78;4840834;29;20078;-79
2023/04/30 07:10:49;;;;;;;27.77;13.30;;;;;;;8.81;100.00;102180.66;4839562;29;20448;-78
2023/04/30 07:13:15;;;;;;;24.27;12.77;;;;;;;8.86;99.17;102181.34;4839402;29;20044;-79
2023/04/30 07:15:41;;;;;;;25.52;13.02;;;;;;;8.91;99.83;102190.88;4840930;29;20117;-79
2023/04/30 07:18:06;;;;;;;24.08;13.10;;;;;;;8.98;99.78;102186.13;4840563;29;20069;-79
2023/04/30 07:20:31;;;;;;;32.75;12.52;;;;;;;9.04;99.45;102185.84;4840818;29;20037;-79
2023/04/30 07:22:57;;;;;;;24.63;13.07;;;;;;;9.11;100.00;102183.78;4840818;29;20135;-79
2023/04/30 07:25:22;;;;;;;25.02;13.15;;;;;;;9.16;99.15;102192.47;4839368;29;20070;-80
2023/04/30 07:27:50;;;;;;;26.73;13.40;;;;;;;9.25;99.74;102188.47;4840486;29;20458;-79
2023/04/30 07:30:16;;;;;;;27.80;14.23;;;;;;;9.29;99.46;102176.66;4840481;29;20351;-79
2023/04/30 07:32:41;;;;;;;25.52;13.48;;;;;;;9.35;99.51;102181.75;4840496;29;20034;-79
2023/04/30 07:35:07;;;;;;;28.42;15.25;;;;;;;9.40;98.48;102176.16;4839366;29;20160;-79
2023/04/30 07:37:35;;;;;;;23.90;12.40;;;;;;;9.48;100.00;102176.69;4840602;29;20025;-79
2023/04/30 07:40:00;;;;;;;25.52;13.73;;;;;;;9.47;96.03;102174.94;4840595;29;20026;-79
2023/04/30 07:42:26;;;;;;;25.45;13.50;;;;;;;9.54;96.78;102178.19;4840127;29;20037;-79
2023/04/30 07:44:51;;;;;;;26.65;14.50;;;;;;;9.62;97.47;102173.34;4840433;29;20042;-79
2023/04/30 07:47:18;;;;;;;24.63;12.73;;;;;;;9.68;95.31;102173.03;4840332;29;20100;-79
2023/04/30 07:49:45;;;;;;;23.23;11.82;;;;;;;9.72;94.98;102174.66;4839052;29;20026;-78
2023/04/30 07:52:11;;;;;;;23.85;12.27;;;;;;;9.76;96.03;102173.53;4838944;29;20030;-79
2023/04/30 07:54:37;;;;;;;25.55;13.52;;;;;;;9.83;95.79;102170.56;4840315;29;20034;-79
2023/04/30 07:57:04;;;;;;;24.98;12.80;;;;;;;9.92;98.42;102167.41;4838793;29;20366;-78
2023/04/30 07:59:29;;;;;;;22.42;11.50;;;;;;;9.95;93.59;102169.94;4840274;29;20036;-79
2023/04/30 08:01:54;;;;;;;24.67;12.68;;;;;;;10.01;95.30;102161.56;4839412;29;20058;-79
2023/04/30 08:04:20;;;;;;;24.17;12.60;;;;;;;10.10;93.96;102176.38;4840360;29;20025;-79
2023/04/30 08:06:45;;;;;;;27.98;13.60;;;;;;;10.16;93.42;102170.69;4838837;29;20029;-79
2023/04/30 08:09:10;;;;;;;27.05;12.82;;;;;;;10.21;93.25;102167.78;4840346;29;20044;-79
2023/04/30 08:11:36;;;;;;;23.02;11.55;;;;;;;10.22;93.28;102167.72;4838758;29;20029;-79
2023/04/30 08:14:02;;;;;;;21.65;10.98;;;;;;;10.31;92.99;102180.66;4840222;29;20044;-79
2023/04/30 08:16:27;;;;;;;25.00;12.00;;;;;;;10.36;90.88;102163.47;4843572;29;20034;-79
2023/04/30 08:18:53;;;;;;;24.13;12.13;;;;;;;10.44;92.21;102170.19;4843936;29;20030;-79
2023/04/30 08:21:18;;;;;;;22.52;10.98;;;;;;;10.53;88.73;102173.34;4842475;29;20398;-79
2023/04/30 08:23:44;;;;;;;22.75;10.88;;;;;;;10.64;88.88;102174.53;4842705;29;20101;-79
2023/04/30 08:26:10;;;;;;;23.50;10.93;;;;;;;10.69;90.77;102174.28;4843544;29;20033;-79
2023/04/30 08:28:35;;;;;;;25.45;12.18;;;;;;;10.78;91.58;102178.31;4843519;29;20049;-79
2023/04/30 08:31:00;;;;;;;26.35;10.88;;;;;;;10.83;89.58;102171.75;4843715;29;20033;-79
2023/04/30 08:33:26;;;;;;;24.77;11.82;;;;;;;10.84;90.55;102176.16;4843529;29;20026;-79
2023/04/30 08:35:51;;;;;;;22.77;11.70;;;;;;;10.94;92.32;102170.31;4843589;29;20034;-79
2023/04/30 08:38:17;;;;;;;24.95;13.25;;;;;;;10.99;92.97;102163.69;4843646;29;20038;-80
2023/04/30 08:40:47;;;;;;;25.70;12.52;;;;;;;11.05;91.50;102169.72;4843664;29;20400;-79
2023/04/30 08:43:14;;;;;;;23.05;10.93;;;;;;;11.12;91.62;102171.97;4842165;29;20394;-79
2023/04/30 08:45:40;;;;;;;27.05;12.15;;;;;;;11.17;94.94;102163.66;4843531;29;20063;-80
2023/04/30 08:48:10;;;;;;;24.05;11.90;;;;;;;11.24;89.77;102173.13;4841871;29;20036;-79
2023/04/30 08:50:35;;;;;;;;;;;;;;;11.28;93.01;102160.41;4843685;29;20065;-79
2023/04/30 08:53:01;;;;;;;25.77;12.50;;;;;;;11.37;91.59;102170.63;4841942;29;19960;-80
2023/04/30 08:55:27;;;;;;;24.08;12.65;;;;;;;11.44;91.06;102166.66;4843247;29;20501;-79
2023/04/30 08:57:52;;;;;;;23.60;11.77;;;;;;;11.47;92.65;102161.09;4843040;29;20071;-80
2023/04/30 09:00:18;;;;;;;24.00;12.98;;;;;;;11.50;90.67;102160.06;4843177;29;20470;-79
2023/04/30 09:02:44;;;;;;;23.90;11.68;;;;;;;11.48;88.26;102162.84;4842452;29;20057;-80
2023/04/30 09:05:11;;;;;;;23.50;11.82;;;;;;;11.52;89.33;102163.53;4841831;29;20101;-79
2023/04/30 09:07:40;;;;;;;25.80;12.90;;;;;;;11.58;88.03;102170.38;4841819;29;20198;-80
2023/04/30 09:10:14;;;;;;;24.60;11.32;;;;;;;11.69;90.49;102159.88;4841400;29;20447;-80
2023/04/30 09:12:42;;;;;;;21.10;10.43;;;;;;;11.72;86.78;102160.56;4841573;29;20042;-80
2023/04/30 09:15:08;;;;;;;25.88;11.93;;;;;;;11.80;88.82;102156.56;4841726;29;20497;-79
2023/04/30 09:17:34;;;;;;;21.98;11.23;;;;;;;11.85;85.40;102158.03;4842793;29;20147;-80
2023/04/30 09:20:09;;;;;;;23.00;11.30;;;;;;;11.91;86.58;102155.97;4842762;29;20109;-80
2023/04/30 09:22:36;;;;;;;21.40;10.32;;;;;;;11.95;86.87;102158.41;4842647;29;20049;-79
2023/04/30 09:25:01;;;;;;;25.38;12.93;;;;;;;12.06;90.12;102157.78;4841421;29;20150;-80
2023/04/30 09:27:26;;;;;;;23.63;11.15;;;;;;;12.11;89.03;102155.69;4842589;29;20113;-80
2023/04/30 09:29:52;;;;;;;23.95;12.23;;;;;;;12.16;89.54;102158.13;4841353;29;20038;-80
2023/04/30 09:32:18;;;;;;;22.98;10.70;;;;;;;12.17;87.66;102167.94;4841071;29;20041;-79
2023/04/30 09:34:43;;;;;;;23.88;11.23;;;;;;;12.22;86.31;102157.75;4841400;29;20122;-80
2023/04/30 09:37:09;;;;;;;22.65;10.80;;;;;;;12.28;87.33;102151.13;4841196;29;20121;-80
2023/04/30 09:39:49;;;;;;;25.80;13.82;;;;;;;12.40;92.10;102161.16;4841120;29;20026;-79
2023/04/30 09:42:15;;;;;;;;;;;;;;;12.39;89.07;102156.75;4841469;29;20125;-80
2023/04/30 09:44:42;;;;;;;23.40;11.88;;;;;;;12.44;86.61;102151.94;4842404;29;20156;-81
2023/04/30 09:47:18;;;;;;;28.13;11.98;;;;;;;12.51;87.14;102157.84;4842295;29;20040;-79
2023/04/30 09:49:46;;;;;;;22.83;11.32;;;;;;;12.59;85.51;102155.53;4840893;29;20359;-79
2023/04/30 09:52:14;;;;;;;20.63;9.47;;;;;;;12.57;80.61;102154.75;4842521;29;20044;-80
2023/04/30 09:54:42;;;;;;;22.23;10.00;;;;;;;12.58;82.65;102149.28;4842152;29;20036;-80
2023/04/30 09:57:10;;;;;;;23.52;10.15;;;;;;;12.61;82.06;102155.41;4840775;29;20086;-79
2023/04/30 09:59:38;;;;;;;20.48;8.50;;;;;;;12.64;79.23;102157.97;4842238;29;20427;-79
2023/04/30 10:02:05;;;;;;;22.25;10.95;;;;;;;12.68;83.29;102152.28;4841555;29;20045;-79
2023/04/30 10:04:38;;;;;;;21.38;10.27;;;;;;;12.70;84.33;102153.03;4842271;29;20033;-80
2023/04/30 10:07:11;;;;;;;21.08;9.23;;;;;;;12.77;84.88;102148.16;4841985;29;20038;-80
2023/04/30 10:09:47;;;;;;;21.50;10.68;;;;;;;12.73;80.00;102143.91;4842045;29;20106;-81
2023/04/30 10:12:33;;;;;;;23.08;10.50;;;;;;;12.79;82.36;102140.81;4834483;29;20022;-80
2023/04/30 10:15:24;;;;;;;21.88;9.25;;;;;;;12.86;82.77;102136.78;4841825;29;20046;-80
2023/04/30 10:17:56;;;;;;;20.77;8.18;;;;;;;12.89;79.20;102147.38;4840048;29;20169;-80
2023/04/30 10:20:23;;;;;;;19.52;8.30;;;;;;;12.96;83.10;102141.59;4834579;29;20048;-80
2023/04/30 10:22:49;;;;;;;21.58;10.27;;;;;;;13.04;80.66;102140.13;4840469;29;20106;-77
2023/04/30 10:25:15;;;;;;;21.40;10.15;;;;;;;13.08;81.04;102135.44;4840308;29;20049;-80
2023/04/30 10:27:41;;;;;;;22.05;10.10;;;;;;;13.07;79.04;102133.69;4840264;29;20034;-80
2023/04/30 10:30:09;;;;;;;20.77;9.38;;;;;;;13.06;80.55;102129.25;4840235;29;20029;-80
2023/04/30 10:32:45;;;;;;;22.85;10.00;;;;;;;13.13;81.33;102133.28;4840972;29;20063;-80
2023/04/30 10:35:23;;;;;;;21.70;9.45;;;;;;;13.13;82.08;102122.50;4841543;29;20098;-80
2023/04/30 10:37:53;;;;;;;20.60;10.90;;;;;;;13.22;80.05;102121.94;4841176;29;20431;-80
2023/04/30 10:40:19;;;;;;;24.63;11.27;;;;;;;13.27;80.21;102116.22;4840006;29;20112;-80
2023/04/30 10:42:48;;;;;;;22.73;10.70;;;;;;;13.33;81.01;102118.53;4839986;29;20460;-80
2023/04/30 10:45:17;;;;;;;24.45;12.25;;;;;;;13.36;80.23;102107.56;4841294;29;20478;-81
2023/04/30 10:47:44;;;;;;;22.75;11.27;;;;;;;13.42;79.75;102109.00;4839831;29;20045;-80
2023/04/30 10:50:10;;;;;;;23.15;12.00;;;;;;;13.51;82.56;102102.13;4841123;29;20022;-80
2023/04/30 10:52:37;;;;;;;21.60;10.63;;;;;;;13.49;79.41;102102.22;4839730;29;20101;-81
2023/04/30 10:55:07;;;;;;;20.55;9.52;;;;;;;13.51;76.37;102100.28;4841137;29;20057;-81
2023/04/30 10:57:44;;;;;;;19.20;9.13;;;;;;;13.56;80.31;102094.59;4839653;29;20401;-80
2023/04/30 11:00:09;;;;;;;22.40;9.90;;;;;;;13.62;79.71;102086.06;4839697;29;20317;-80
2023/04/30 11:02:46;;;;;;;21.02;10.07;;;;;;;13.64;76.26;102086.81;4840456;29;20148;-80
2023/04/30 11:05:17;;;;;;;20.92;10.18;;;;;;;13.58;74.67;102082.69;4834604;29;20038;-81
2023/04/30 11:07:50;;;;;;;22.08;11.13;;;;;;;13.60;75.81;102083.47;4841002;29;20033;-79
2023/04/30 11:10:16;;;;;;;17.35;7.57;;;;;;;13.61;76.69;102084.34;4833034;29;20121;-80
2023/04/30 11:12:47;;;;;;;19.70;7.28;;;;;;;13.61;73.05;102071.69;4839508;29;20090;-80